createdAt,value
2019-03-30T00:06:23.717Z,60.60
2019-03-30T00:16:29.763Z,60.70
2019-03-30T00:26:35.893Z,60.70
2019-03-30T00:36:41.728Z,61.20
2019-03-30T00:46:47.771Z,61.80
2019-03-30T00:56:53.822Z,61.70
2019-03-30T01:06:59.703Z,62.30
2019-03-30T01:17:06.099Z,61.70
2019-03-30T01:27:12.143Z,61.70
2019-03-30T01:37:17.979Z,61.70
2019-03-30T01:47:23.776Z,61.80
2019-03-30T01:57:29.674Z,62.20
2019-03-30T02:07:35.470Z,62.30
2019-03-30T02:17:41.749Z,62.30
2019-03-30T02:27:47.650Z,62.60
2019-03-30T02:37:53.527Z,62.40
2019-03-30T02:47:59.558Z,62.50
2019-03-30T02:58:05.674Z,62.50
2019-03-30T03:08:11.724Z,62.70
2019-03-30T03:18:17.574Z,62.70
2019-03-30T03:28:23.624Z,62.60
2019-03-30T03:38:29.434Z,62.80
2019-03-30T03:48:35.801Z,62.90
2019-03-30T03:58:43.375Z,62.80
2019-03-30T04:08:51.132Z,63.20
2019-03-30T04:18:57.550Z,63.00
2019-03-30T04:29:03.355Z,62.90
2019-03-30T04:39:09.145Z,63.20
2019-03-30T04:49:15.167Z,63.30
2019-03-30T04:59:20.947Z,63.50
2019-03-30T05:09:26.718Z,63.40
2019-03-30T05:19:32.535Z,63.40
2019-03-30T05:29:38.923Z,63.30
2019-03-30T05:39:44.719Z,63.30
2019-03-30T05:49:50.568Z,63.20
2019-03-30T05:59:56.455Z,63.10
2019-03-30T06:10:02.797Z,63.10
2019-03-30T06:20:08.757Z,63.00
2019-03-30T06:30:16.883Z,62.80
2019-03-30T06:40:22.680Z,63.00
2019-03-30T06:50:28.708Z,63.10
2019-03-30T07:00:35.554Z,63.10
2019-03-30T07:10:43.962Z,63.10
2019-03-30T07:20:49.761Z,62.90
2019-03-30T07:30:55.622Z,62.60
2019-03-30T07:41:01.419Z,62.70
2019-03-30T07:51:07.823Z,62.40
2019-03-30T08:01:13.643Z,62.30
2019-03-30T08:11:19.615Z,62.30
2019-03-30T08:21:25.502Z,62.20
2019-03-30T08:31:31.343Z,61.90
2019-03-30T08:41:37.142Z,61.40
2019-03-30T08:51:42.983Z,60.90
2019-03-30T09:01:49.048Z,60.60
2019-03-30T09:11:55.139Z,60.10
2019-03-30T09:22:00.987Z,59.10
2019-03-30T09:32:14.379Z,58.70
2019-03-30T09:42:14.707Z,58.10
2019-03-30T09:52:20.852Z,57.10
2019-03-30T10:02:26.654Z,54.50
2019-03-30T10:12:33.492Z,53.50
2019-03-30T10:22:42.164Z,52.80
2019-03-30T10:32:47.576Z,50.90
2019-03-30T10:42:53.671Z,48.50
2019-03-30T10:52:59.479Z,47.10
2019-03-30T11:03:05.582Z,43.80
2019-03-30T11:13:11.394Z,40.10
2019-03-30T11:23:17.190Z,37.60
2019-03-30T11:33:22.975Z,34.10
2019-03-30T11:43:29.254Z,33.80
2019-03-30T11:53:35.072Z,32.70
2019-03-30T12:03:40.858Z,31.30
2019-03-30T12:13:46.960Z,29.70
2019-03-30T12:23:52.774Z,29.00
2019-03-30T12:33:58.792Z,27.70
2019-03-30T12:44:04.756Z,26.30
2019-03-30T12:54:10.899Z,25.60
2019-03-30T13:04:16.780Z,25.00
2019-03-30T13:14:22.563Z,23.00
2019-03-30T13:24:28.438Z,23.10
2019-03-30T13:34:34.235Z,22.00
2019-03-30T13:44:40.506Z,22.00
2019-03-30T13:54:46.551Z,22.50
2019-03-30T14:04:52.722Z,21.60
2019-03-30T14:14:58.855Z,22.10
2019-03-30T14:25:05.746Z,21.20
2019-03-30T14:35:11.898Z,21.30
2019-03-30T14:45:18.192Z,20.70
2019-03-30T14:55:24.100Z,19.30
2019-03-30T15:05:29.942Z,17.90
2019-03-30T15:15:35.724Z,17.40
2019-03-30T15:25:41.734Z,14.70
2019-03-30T15:35:46.422Z,15.10
2019-03-30T15:45:52.627Z,17.90
2019-03-30T15:55:58.424Z,17.50
2019-03-30T16:06:04.202Z,20.70
2019-03-30T16:16:09.981Z,22.70
2019-03-30T16:26:13.443Z,23.70
2019-03-30T16:36:19.215Z,24.70
2019-03-30T16:46:25.328Z,25.70
2019-03-30T16:56:31.183Z,26.80
2019-03-30T17:06:37.046Z,28.00
2019-03-30T17:16:43.319Z,29.70
2019-03-30T17:27:08.145Z,31.20
2019-03-30T17:37:14.610Z,32.70
2019-03-30T17:47:20.873Z,34.30
2019-03-30T17:57:26.678Z,36.00
2019-03-30T18:07:32.534Z,37.10
2019-03-30T18:17:38.815Z,38.90
2019-03-30T18:27:44.933Z,39.20
2019-03-30T18:37:52.282Z,40.00
2019-03-30T18:48:10.608Z,40.80
2019-03-30T18:58:16.567Z,41.70
2019-03-30T19:08:22.371Z,42.50
2019-03-30T19:18:28.463Z,43.30
2019-03-30T19:28:34.489Z,43.70
2019-03-30T19:38:40.287Z,44.30
2019-03-30T19:48:46.108Z,44.60
2019-03-30T19:58:52.270Z,45.40
2019-03-30T20:08:58.189Z,46.50
2019-03-30T20:19:12.181Z,48.00
2019-03-30T20:29:24.811Z,48.00
2019-03-30T20:39:19.739Z,48.90
2019-03-30T20:49:25.563Z,50.20
2019-03-30T20:59:39.942Z,51.00
2019-03-30T21:09:39.434Z,50.60
2019-03-30T21:19:45.467Z,51.30
2019-03-30T21:29:54.965Z,50.70
2019-03-30T21:39:59.558Z,50.80
2019-03-30T21:50:06.094Z,51.00
2019-03-30T22:00:12.743Z,51.90
2019-03-30T22:10:27.159Z,52.00
2019-03-30T22:20:33.305Z,52.20
2019-03-30T22:30:39.555Z,53.10
2019-03-30T22:40:45.362Z,53.90
2019-03-30T22:50:51.768Z,53.50
2019-03-30T23:01:02.691Z,54.50
2019-03-30T23:11:08.565Z,54.10
2019-03-30T23:21:14.376Z,53.80
2019-03-30T23:31:20.519Z,53.30
2019-03-30T23:41:26.345Z,53.40
2019-03-30T23:51:32.180Z,53.40
